createdAt,value
2022-12-31T00:00:28.196Z,19.36
2022-12-31T00:05:51.840Z,19.37
2022-12-31T00:10:55.620Z,19.37
2022-12-31T00:15:59.081Z,19.34
2022-12-31T00:21:03.161Z,19.34
2022-12-31T00:26:06.707Z,19.26
2022-12-31T00:31:10.225Z,19.30
2022-12-31T00:36:13.788Z,19.29
2022-12-31T00:41:17.531Z,19.27
2022-12-31T00:46:21.302Z,19.30
2022-12-31T00:51:27.306Z,19.28
2022-12-31T00:56:31.143Z,19.28
2022-12-31T01:01:34.752Z,19.33
2022-12-31T01:06:38.334Z,19.26
2022-12-31T01:11:41.891Z,19.25
2022-12-31T01:16:45.406Z,19.23
2022-12-31T01:21:49.019Z,19.23
2022-12-31T01:26:52.507Z,19.32
2022-12-31T01:31:55.982Z,19.22
2022-12-31T01:36:59.463Z,19.19
2022-12-31T01:42:02.975Z,19.20
2022-12-31T01:47:06.529Z,19.21
2022-12-31T01:52:10.145Z,19.18
2022-12-31T01:57:13.667Z,19.15
2022-12-31T02:02:17.276Z,19.19
2022-12-31T02:07:20.895Z,19.20
2022-12-31T02:12:24.372Z,19.16
2022-12-31T02:17:27.881Z,19.15
2022-12-31T02:22:31.391Z,19.18
2022-12-31T02:27:35.586Z,19.16
2022-12-31T02:32:39.279Z,19.19
2022-12-31T02:37:42.806Z,19.17
2022-12-31T02:42:51.528Z,19.15
2022-12-31T02:47:58.587Z,19.11
2022-12-31T02:53:02.094Z,19.12
2022-12-31T02:58:05.571Z,19.11
2022-12-31T03:03:09.066Z,19.11
2022-12-31T03:08:12.569Z,19.13
2022-12-31T03:13:16.075Z,19.10
2022-12-31T03:18:39.537Z,19.05
2022-12-31T03:23:43.074Z,19.03
2022-12-31T03:28:48.205Z,19.01
2022-12-31T03:33:51.742Z,19.02
2022-12-31T03:38:55.250Z,18.97
2022-12-31T03:43:58.737Z,19.03
2022-12-31T03:49:02.252Z,19.02
2022-12-31T03:54:05.734Z,19.02
2022-12-31T03:59:09.263Z,19.01
2022-12-31T04:04:12.751Z,18.99
2022-12-31T04:09:16.431Z,19.00
2022-12-31T04:14:20.118Z,19.00
2022-12-31T04:19:23.665Z,18.95
2022-12-31T04:24:27.259Z,18.96
2022-12-31T04:29:30.747Z,18.91
2022-12-31T04:34:34.229Z,18.96
2022-12-31T04:39:37.739Z,18.92
2022-12-31T04:44:41.235Z,18.94
2022-12-31T04:49:44.768Z,18.91
2022-12-31T04:54:48.390Z,18.86
2022-12-31T04:59:51.934Z,18.90
2022-12-31T05:04:55.450Z,18.87
2022-12-31T05:09:58.928Z,18.89
2022-12-31T05:15:02.602Z,18.88
2022-12-31T05:20:06.098Z,18.85
2022-12-31T05:25:09.582Z,18.86
2022-12-31T05:30:13.053Z,18.84
2022-12-31T05:35:16.570Z,18.80
2022-12-31T05:40:20.131Z,18.84
2022-12-31T05:45:30.158Z,18.81
2022-12-31T05:50:34.201Z,18.76
2022-12-31T05:55:37.748Z,18.76
2022-12-31T06:00:41.221Z,18.75
2022-12-31T06:05:45.809Z,18.75
2022-12-31T06:10:49.314Z,18.70
2022-12-31T06:15:52.862Z,18.66
2022-12-31T06:20:56.373Z,18.65
2022-12-31T06:25:59.877Z,18.62
2022-12-31T06:31:03.426Z,18.64
2022-12-31T06:36:07.078Z,18.64
2022-12-31T06:41:11.242Z,18.64
2022-12-31T06:46:14.775Z,18.61
2022-12-31T06:51:18.517Z,18.61
2022-12-31T06:56:26.551Z,18.60
2022-12-31T07:01:33.273Z,18.61
2022-12-31T07:06:36.943Z,18.57
2022-12-31T07:11:40.426Z,18.55
2022-12-31T07:16:43.922Z,18.51
2022-12-31T07:21:47.444Z,18.53
2022-12-31T07:26:56.145Z,18.50
2022-12-31T07:32:00.453Z,18.46
2022-12-31T07:37:03.973Z,18.47
2022-12-31T07:42:07.481Z,18.42
2022-12-31T07:47:11.042Z,18.38
2022-12-31T07:52:14.570Z,18.48
2022-12-31T07:57:18.107Z,17.70
2022-12-31T08:02:21.696Z,18.47
2022-12-31T08:07:25.327Z,18.55
2022-12-31T08:12:28.968Z,18.66
2022-12-31T08:17:32.604Z,18.59
2022-12-31T08:22:36.136Z,18.71
2022-12-31T08:27:40.498Z,18.79
2022-12-31T08:32:44.007Z,18.73
2022-12-31T08:37:47.544Z,18.62
2022-12-31T08:42:51.054Z,18.64
2022-12-31T08:47:59.703Z,18.48
2022-12-31T08:53:03.870Z,18.70
2022-12-31T08:58:07.358Z,18.41
2022-12-31T09:03:10.865Z,18.34
2022-12-31T09:08:14.500Z,18.39
2022-12-31T09:13:18.067Z,18.37
2022-12-31T09:18:21.583Z,18.30
2022-12-31T09:23:25.130Z,18.31
2022-12-31T09:28:28.658Z,18.29
2022-12-31T09:33:32.179Z,18.31
2022-12-31T09:38:35.669Z,18.31
2022-12-31T09:43:39.283Z,18.30
2022-12-31T09:48:42.796Z,18.32
2022-12-31T09:53:46.296Z,18.33
2022-12-31T09:58:49.793Z,18.30
2022-12-31T10:03:53.317Z,18.35
2022-12-31T10:08:56.885Z,18.52
2022-12-31T10:14:00.390Z,18.34
2022-12-31T10:19:03.909Z,18.24
2022-12-31T10:24:07.550Z,18.25
2022-12-31T10:29:11.024Z,18.19
2022-12-31T10:34:14.546Z,18.27
2022-12-31T10:39:24.076Z,18.21
2022-12-31T10:44:28.140Z,18.20
2022-12-31T10:49:31.702Z,18.18
2022-12-31T10:54:35.172Z,18.18
2022-12-31T10:59:38.703Z,18.33
2022-12-31T11:04:42.195Z,18.26
2022-12-31T11:09:45.693Z,18.21
2022-12-31T11:14:49.212Z,18.19
2022-12-31T11:19:52.738Z,18.20
2022-12-31T11:24:56.263Z,18.20
2022-12-31T11:29:59.728Z,18.15
2022-12-31T11:35:03.334Z,18.13
2022-12-31T11:40:06.902Z,18.10
2022-12-31T11:45:10.432Z,18.12
2022-12-31T11:50:15.279Z,18.14
2022-12-31T11:55:18.919Z,18.10
2022-12-31T12:00:22.598Z,18.10
2022-12-31T12:05:26.088Z,18.12
2022-12-31T12:10:35.997Z,18.14
2022-12-31T12:15:40.282Z,18.02
2022-12-31T12:20:43.981Z,18.08
2022-12-31T12:25:47.504Z,18.10
2022-12-31T12:30:51.092Z,18.03
2022-12-31T12:35:54.576Z,17.97
2022-12-31T12:40:58.320Z,17.93
2022-12-31T12:46:01.819Z,17.91
2022-12-31T12:51:05.479Z,17.90
2022-12-31T12:56:09.022Z,17.89
2022-12-31T13:01:12.653Z,17.90
2022-12-31T13:06:16.370Z,17.91
2022-12-31T13:11:21.743Z,17.90
2022-12-31T13:16:25.474Z,17.92
2022-12-31T13:21:29.181Z,17.92
2022-12-31T13:26:32.771Z,17.87
2022-12-31T13:31:36.537Z,17.80
2022-12-31T13:36:40.191Z,17.88
2022-12-31T13:41:45.681Z,17.81
2022-12-31T13:46:49.266Z,17.74
2022-12-31T13:51:52.809Z,17.73
2022-12-31T13:56:56.338Z,17.72
2022-12-31T14:01:59.944Z,17.73
2022-12-31T14:07:03.751Z,17.71
2022-12-31T14:12:07.422Z,17.73
2022-12-31T14:17:10.889Z,17.69
2022-12-31T14:22:14.348Z,17.69
2022-12-31T14:27:17.851Z,17.66
2022-12-31T14:32:22.407Z,17.67
2022-12-31T14:37:25.893Z,17.65
2022-12-31T14:42:29.383Z,17.73
2022-12-31T14:47:32.894Z,17.74
2022-12-31T14:52:36.372Z,17.79
2022-12-31T14:58:09.620Z,17.92
2022-12-31T15:03:03.364Z,17.91
2022-12-31T15:08:07.024Z,18.00
2022-12-31T15:13:10.514Z,17.93
2022-12-31T15:18:14.025Z,18.03
2022-12-31T15:23:18.605Z,17.91
2022-12-31T15:28:22.215Z,17.84
2022-12-31T15:33:25.762Z,17.84
2022-12-31T15:38:29.256Z,17.87
2022-12-31T15:43:32.771Z,17.94
2022-12-31T15:48:36.278Z,17.91
2022-12-31T15:53:39.744Z,17.93
2022-12-31T15:58:43.280Z,18.03
2022-12-31T16:03:46.867Z,17.95
2022-12-31T16:08:50.400Z,17.98
2022-12-31T16:13:53.924Z,18.00
2022-12-31T16:18:57.560Z,18.03
2022-12-31T16:24:01.178Z,18.03
2022-12-31T16:29:05.392Z,18.04
2022-12-31T16:34:08.945Z,18.06
2022-12-31T16:39:12.462Z,18.05
2022-12-31T16:44:15.965Z,18.06
2022-12-31T16:49:19.476Z,18.08
2022-12-31T16:54:23.019Z,18.11
2022-12-31T16:59:29.300Z,18.09
2022-12-31T17:04:40.004Z,18.16
2022-12-31T17:09:49.752Z,18.15
2022-12-31T17:14:53.294Z,18.19
2022-12-31T17:19:56.807Z,18.29
2022-12-31T17:25:00.803Z,18.28
2022-12-31T17:30:04.484Z,18.35
2022-12-31T17:35:08.019Z,18.56
2022-12-31T17:40:49.412Z,18.82
2022-12-31T17:45:34.979Z,18.85
2022-12-31T17:50:38.472Z,18.82
2022-12-31T17:55:42.415Z,18.84
2022-12-31T18:00:45.942Z,18.91
2022-12-31T18:05:49.549Z,18.94
2022-12-31T18:10:53.054Z,19.02
2022-12-31T18:15:56.624Z,19.11
2022-12-31T18:21:00.340Z,19.18
2022-12-31T18:26:04.184Z,19.18
2022-12-31T18:31:07.777Z,19.23
2022-12-31T18:36:11.502Z,19.26
2022-12-31T18:41:15.025Z,19.30
2022-12-31T18:46:18.569Z,19.31
2022-12-31T18:51:31.029Z,19.34
2022-12-31T18:56:35.583Z,19.34
2022-12-31T19:01:39.242Z,19.42
2022-12-31T19:06:42.838Z,19.50
2022-12-31T19:11:46.758Z,19.46
2022-12-31T19:16:50.282Z,19.41
2022-12-31T19:21:53.790Z,19.45
2022-12-31T19:26:57.303Z,19.57
2022-12-31T19:32:02.343Z,19.52
2022-12-31T19:37:06.001Z,19.57
2022-12-31T19:42:09.567Z,19.58
2022-12-31T19:47:13.046Z,19.68
2022-12-31T19:52:16.627Z,19.72
2022-12-31T19:57:20.124Z,19.78
2022-12-31T20:02:23.693Z,19.84
2022-12-31T20:07:27.482Z,19.83
2022-12-31T20:12:31.078Z,19.72
2022-12-31T20:17:35.143Z,19.66
2022-12-31T20:22:38.667Z,19.65
2022-12-31T20:27:42.155Z,19.57
2022-12-31T20:32:46.665Z,19.65
2022-12-31T20:37:50.239Z,19.60
2022-12-31T20:42:53.755Z,19.57
2022-12-31T20:47:57.279Z,19.58
2022-12-31T20:53:00.824Z,19.55
2022-12-31T20:58:05.585Z,19.56
2022-12-31T21:03:30.045Z,19.55
2022-12-31T21:08:35.019Z,19.59
2022-12-31T21:13:38.927Z,19.58
2022-12-31T21:18:42.415Z,19.57
2022-12-31T21:23:46.111Z,19.60
2022-12-31T21:28:49.612Z,19.61
2022-12-31T21:33:53.122Z,19.73
2022-12-31T21:38:56.673Z,19.85
2022-12-31T21:44:00.275Z,19.78
2022-12-31T21:49:03.779Z,19.83
2022-12-31T21:54:27.241Z,19.90
2022-12-31T22:00:03.173Z,19.94
2022-12-31T22:05:18.633Z,19.79
2022-12-31T22:10:25.127Z,19.79
2022-12-31T22:15:28.793Z,19.77
2022-12-31T22:20:32.288Z,19.81
2022-12-31T22:25:35.986Z,19.79
2022-12-31T22:30:39.494Z,19.82
2022-12-31T22:35:43.042Z,20.21
2022-12-31T22:40:46.562Z,21.17
2022-12-31T22:45:50.197Z,21.31
2022-12-31T22:50:53.673Z,21.38
2022-12-31T22:55:57.195Z,21.43
2022-12-31T23:01:00.713Z,21.46
2022-12-31T23:06:04.489Z,21.45
2022-12-31T23:11:09.667Z,21.42
2022-12-31T23:16:31.213Z,21.47
2022-12-31T23:21:52.755Z,21.49
2022-12-31T23:26:56.287Z,21.51
2022-12-31T23:31:59.832Z,21.52
2022-12-31T23:37:04.363Z,21.54
2022-12-31T23:42:07.908Z,21.55
2022-12-31T23:47:11.524Z,21.56
2022-12-31T23:52:15.123Z,21.57
2022-12-31T23:57:18.824Z,21.57
